Time;durP1;ratioP1;P1;durP2;ratioP2;P2;SDS_P1;SDS_P2;PMS_P1;PMS_P2;Temp;Humidity;BMP_temperature;BMP_pressure;BME280_temperature;BME280_humidity;BME280_pressure;Samples;Min_cycle;Max_cycle;Signal;HPM_P1;HPM_P2
2022/08/07 00:00:16;;;;;;;0.08;0.08;;;23.80;55.80;;;;;;4179803;28;20082;-67
2022/08/07 00:02:39;;;;;;;0.00;0.00;;;23.80;55.80;;;;;;4166761;28;20053;-67
2022/08/07 00:05:07;;;;;;;0.00;0.00;;;23.80;55.90;;;;;;4177225;28;20103;-67
2022/08/07 00:07:29;;;;;;;0.00;0.00;;;23.80;55.90;;;;;;4176249;28;20041;-67
2022/08/07 00:09:51;;;;;;;0.00;0.00;;;23.80;55.90;;;;;;4176952;28;20518;-67
2022/08/07 00:12:31;;;;;;;0.00;0.00;;;23.80;56.70;;;;;;4176891;28;20045;-67
2022/08/07 00:14:53;;;;;;;0.10;0.10;;;23.80;56.00;;;;;;4184006;28;20052;-67
2022/08/07 00:17:16;;;;;;;0.05;0.05;;;23.80;56.00;;;;;;4182787;28;20419;-67
2022/08/07 00:19:38;;;;;;;0.00;0.00;;;23.80;56.00;;;;;;4176737;28;20464;-67
2022/08/07 00:22:21;;;;;;;0.00;0.00;;;23.70;56.10;;;;;;4175808;28;20056;-67
2022/08/07 00:24:45;;;;;;;0.00;0.00;;;23.70;56.10;;;;;;4176667;28;20037;-67
2022/08/07 00:27:07;;;;;;;0.10;0.10;;;23.70;56.10;;;;;;4176482;28;20823;-67
2022/08/07 00:29:30;;;;;;;0.13;0.13;;;23.70;56.10;;;;;;4174699;28;20523;-67
2022/08/07 00:31:53;;;;;;;0.50;0.50;;;23.70;56.20;;;;;;4176670;28;20073;-68
2022/08/07 00:34:16;;;;;;;0.00;0.00;;;23.70;56.30;;;;;;4174803;28;20049;-67
2022/08/07 00:36:38;;;;;;;0.00;0.00;;;23.70;56.30;;;;;;4176194;28;20103;-68
2022/08/07 00:39:05;;;;;;;0.00;0.00;;;23.70;56.30;;;;;;4175596;28;20099;-68
2022/08/07 00:41:31;;;;;;;0.10;0.10;;;23.70;56.30;;;;;;4175185;28;20145;-68
2022/08/07 00:43:53;;;;;;;0.00;0.00;;;23.70;56.30;;;;;;4189434;28;20151;-68
2022/08/07 00:46:23;;;;;;;0.10;0.10;;;23.60;56.30;;;;;;4192465;28;20140;-67
2022/08/07 00:48:45;;;;;;;0.15;0.15;;;23.60;56.30;;;;;;4191552;28;20533;-66
2022/08/07 00:51:11;;;;;;;0.00;0.00;;;23.60;56.30;;;;;;4175939;28;20059;-67
2022/08/07 00:53:33;;;;;;;0.65;0.65;;;23.60;56.30;;;;;;4160786;28;20129;-67
2022/08/07 00:56:01;;;;;;;0.00;0.00;;;23.60;56.40;;;;;;4160478;28;20046;-67
2022/08/07 00:58:25;;;;;;;0.00;0.00;;;23.60;56.40;;;;;;4176249;28;21475;-67
2022/08/07 01:00:47;;;;;;;0.00;0.00;;;23.60;56.40;;;;;;4176370;28;20144;-67
2022/08/07 01:03:12;;;;;;;0.00;0.00;;;23.60;56.40;;;;;;4174084;28;20201;-67
2022/08/07 01:05:35;;;;;;;0.00;0.00;;;23.60;56.40;;;;;;4180686;28;20127;-67
2022/08/07 01:07:57;;;;;;;0.75;0.75;;;23.60;56.40;;;;;;4168859;28;20127;-67
2022/08/07 01:10:19;;;;;;;0.03;0.03;;;23.60;56.40;;;;;;4174110;28;20523;-67
2022/08/07 01:12:43;;;;;;;0.00;0.00;;;23.60;56.40;;;;;;4158851;28;20060;-67
2022/08/07 01:15:08;;;;;;;0.10;0.10;;;23.50;56.40;;;;;;4159195;28;20049;-67
2022/08/07 01:17:34;;;;;;;0.75;0.75;;;23.50;56.50;;;;;;4179937;28;20048;-67
2022/08/07 01:20:08;;;;;;;0.08;0.08;;;23.50;56.50;;;;;;4190418;28;20075;-67
2022/08/07 01:22:32;;;;;;;0.00;0.00;;;23.50;56.50;;;;;;4189495;28;20099;-68
2022/08/07 01:24:55;;;;;;;3.63;0.75;;;23.50;56.60;;;;;;4161429;28;20041;-67
2022/08/07 01:27:17;;;;;;;0.30;0.30;;;23.50;56.60;;;;;;4190594;28;20049;-67
2022/08/07 01:29:50;;;;;;;0.00;0.00;;;23.50;56.70;;;;;;4190821;28;20044;-67
2022/08/07 01:32:14;;;;;;;0.00;0.00;;;23.50;56.80;;;;;;4190564;28;20140;-67
2022/08/07 01:34:43;;;;;;;0.00;0.00;;;23.50;56.80;;;;;;4190560;28;20040;-67
2022/08/07 01:37:07;;;;;;;0.28;0.28;;;23.50;56.80;;;;;;4181021;28;20551;-67
2022/08/07 01:39:33;;;;;;;0.00;0.00;;;23.40;56.70;;;;;;4173418;28;20130;-67
2022/08/07 01:42:04;;;;;;;0.05;0.05;;;23.40;56.70;;;;;;4173609;28;20732;-67
2022/08/07 01:44:31;;;;;;;0.13;0.13;;;23.40;56.80;;;;;;4173796;28;20467;-67
2022/08/07 01:46:54;;;;;;;0.00;0.00;;;23.40;56.80;;;;;;4173640;28;20057;-67
2022/08/07 01:49:18;;;;;;;0.30;0.30;;;23.40;56.80;;;;;;4181670;28;20044;-67
2022/08/07 01:51:46;;;;;;;0.00;0.00;;;23.40;56.80;;;;;;4186748;28;20102;-68
2022/08/07 01:54:28;;;;;;;0.00;0.00;;;23.40;56.80;;;;;;4196534;28;20056;-67
2022/08/07 01:57:02;;;;;;;0.00;0.00;;;23.40;56.80;;;;;;4174382;28;20107;-67
2022/08/07 01:59:29;;;;;;;0.10;0.10;;;23.40;56.80;;;;;;4159844;28;20045;-68
2022/08/07 02:02:01;;;;;;;0.00;0.00;;;23.30;56.80;;;;;;4173609;28;20052;-67
2022/08/07 02:04:32;;;;;;;0.00;0.00;;;23.30;56.80;;;;;;4157429;28;20143;-67
2022/08/07 02:06:59;;;;;;;0.00;0.00;;;23.30;56.80;;;;;;4157350;28;20049;-67
2022/08/07 02:09:23;;;;;;;0.00;0.00;;;23.30;56.80;;;;;;4170704;28;20053;-67
2022/08/07 02:12:15;;;;;;;0.00;0.00;;;23.30;56.90;;;;;;4173042;28;20134;-67
2022/08/07 02:14:48;;;;;;;0.00;0.00;;;23.30;56.90;;;;;;4173034;28;20744;-67
2022/08/07 02:17:16;;;;;;;0.08;0.08;;;23.30;57.60;;;;;;4180831;28;20457;-67
2022/08/07 02:19:48;;;;;;;0.00;0.00;;;23.30;56.90;;;;;;4190590;28;20125;-66
2022/08/07 02:22:28;;;;;;;0.03;0.03;;;23.30;56.90;;;;;;4190310;28;20063;-67
2022/08/07 02:24:54;;;;;;;0.00;0.00;;;23.30;57.00;;;;;;4190078;28;20387;-67
2022/08/07 02:27:21;;;;;;;0.40;0.40;;;23.20;56.90;;;;;;4191540;28;20547;-67
2022/08/07 02:29:45;;;;;;;0.00;0.00;;;23.20;56.90;;;;;;4172226;28;20053;-67
2022/08/07 02:32:12;;;;;;;0.00;0.00;;;23.20;57.00;;;;;;4173518;28;20128;-67
2022/08/07 02:34:38;;;;;;;0.00;0.00;;;23.20;57.00;;;;;;4173808;28;20067;-67
2022/08/07 02:37:11;;;;;;;0.00;0.00;;;23.20;57.00;;;;;;4173673;28;20083;-67
2022/08/07 02:39:38;;;;;;;0.00;0.00;;;23.20;57.00;;;;;;4173301;28;20060;-66
2022/08/07 02:42:10;;;;;;;0.13;0.13;;;23.20;57.00;;;;;;4157005;28;20056;-67
2022/08/07 02:44:40;;;;;;;0.47;0.47;;;23.20;57.10;;;;;;4156546;28;20041;-67
2022/08/07 02:47:08;;;;;;;0.00;0.00;;;23.20;57.10;;;;;;4159629;28;20049;-67
2022/08/07 02:49:30;;;;;;;0.63;0.63;;;23.20;57.10;;;;;;4161723;28;20049;-67
2022/08/07 02:52:17;;;;;;;0.08;0.08;;;23.20;57.10;;;;;;4172688;28;20134;-67
2022/08/07 02:54:43;;;;;;;0.10;0.10;;;23.10;57.10;;;;;;4165504;28;20059;-67
2022/08/07 02:57:05;;;;;;;0.10;0.10;;;23.10;57.10;;;;;;4194249;28;20556;-66
2022/08/07 02:59:29;;;;;;;0.05;0.05;;;23.10;57.10;;;;;;4193280;28;20115;-67
2022/08/07 03:01:57;;;;;;;0.13;0.13;;;23.10;57.10;;;;;;4186123;28;20463;-67
2022/08/07 03:04:24;;;;;;;0.30;0.30;;;23.10;57.10;;;;;;4177963;28;20048;-67
2022/08/07 03:06:48;;;;;;;0.52;0.52;;;23.10;57.10;;;;;;4177655;28;20103;-67
2022/08/07 03:09:12;;;;;;;0.45;0.45;;;23.10;57.10;;;;;;4189484;28;20140;-67
2022/08/07 03:11:36;;;;;;;0.57;0.57;;;23.10;57.10;;;;;;4177564;28;20056;-67
2022/08/07 03:14:02;;;;;;;0.20;0.20;;;23.10;57.20;;;;;;4176213;28;20102;-67
2022/08/07 03:16:24;;;;;;;0.00;0.00;;;23.10;57.20;;;;;;4176130;28;20045;-66
2022/08/07 03:18:52;;;;;;;0.05;0.05;;;23.10;57.20;;;;;;4175886;28;20052;-68
2022/08/07 03:21:16;;;;;;;0.00;0.00;;;23.10;57.20;;;;;;4176203;28;20110;-68
2022/08/07 03:23:42;;;;;;;0.00;0.00;;;23.00;57.20;;;;;;4177393;28;20057;-68
2022/08/07 03:26:31;;;;;;;0.00;0.00;;;23.00;57.20;;;;;;4175595;28;20142;-67
2022/08/07 03:28:56;;;;;;;0.10;0.10;;;23.00;57.90;;;;;;4176149;28;20090;-68
2022/08/07 03:31:21;;;;;;;0.10;0.10;;;23.00;57.20;;;;;;4175870;28;20136;-67
2022/08/07 03:33:49;;;;;;;0.00;0.00;;;23.00;57.30;;;;;;4176401;28;20051;-68
2022/08/07 03:36:14;;;;;;;0.00;0.00;;;23.00;57.30;;;;;;4177199;28;20076;-67
2022/08/07 03:38:38;;;;;;;0.00;0.00;;;23.00;57.30;;;;;;4176000;28;20049;-68
2022/08/07 03:41:02;;;;;;;0.00;0.00;;;23.00;57.30;;;;;;4176178;28;20086;-68
2022/08/07 03:43:26;;;;;;;0.70;0.30;;;23.00;57.30;;;;;;4176101;28;20049;-68
2022/08/07 03:45:54;;;;;;;0.47;0.47;;;22.90;57.30;;;;;;4175963;28;20163;-68
2022/08/07 03:48:19;;;;;;;0.30;0.30;;;22.90;57.30;;;;;;4175946;28;20056;-68
2022/08/07 03:50:42;;;;;;;0.00;0.00;;;22.90;57.30;;;;;;4174980;28;20471;-67
2022/08/07 03:53:16;;;;;;;0.08;0.08;;;23.00;57.40;;;;;;4159728;28;20048;-67
2022/08/07 03:55:43;;;;;;;0.65;0.47;;;22.90;57.40;;;;;;4175389;28;21016;-67
2022/08/07 03:58:16;;;;;;;0.57;0.57;;;22.90;57.40;;;;;;4176783;28;20056;-67
2022/08/07 04:00:58;;;;;;;0.10;0.10;;;22.90;57.40;;;;;;4167433;28;20411;-68
2022/08/07 04:03:21;;;;;;;0.10;0.10;;;22.90;57.40;;;;;;4159443;28;20053;-69
2022/08/07 04:05:45;;;;;;;0.05;0.05;;;22.90;57.40;;;;;;4160279;28;20060;-64
2022/08/07 04:08:15;;;;;;;0.30;0.28;;;22.90;57.40;;;;;;4165766;28;20072;-63
2022/08/07 04:10:40;;;;;;;0.00;0.00;;;22.90;57.40;;;;;;4174970;28;20072;-63
2022/08/07 04:13:06;;;;;;;0.00;0.00;;;22.90;57.50;;;;;;4176264;28;20044;-63
2022/08/07 04:15:29;;;;;;;0.10;0.10;;;22.90;57.50;;;;;;4191728;28;20059;-63
2022/08/07 04:17:53;;;;;;;0.00;0.00;;;22.80;57.50;;;;;;4191988;28;20553;-63
2022/08/07 04:20:36;;;;;;;0.00;0.00;;;22.90;57.60;;;;;;4191933;28;20130;-63
2022/08/07 04:23:00;;;;;;;0.08;0.08;;;22.80;57.50;;;;;;4176897;28;20068;-63
2022/08/07 04:25:30;;;;;;;1.00;0.52;;;22.80;57.60;;;;;;4174696;28;20057;-63
2022/08/07 04:27:52;;;;;;;0.20;0.20;;;22.80;57.60;;;;;;4175057;28;20063;-63
2022/08/07 04:30:20;;;;;;;1.38;0.55;;;22.80;58.30;;;;;;4175178;28;20064;-63
2022/08/07 04:33:16;;;;;;;0.00;0.00;;;22.80;58.30;;;;;;4190434;28;20048;-63
2022/08/07 04:35:43;;;;;;;0.32;0.32;;;22.80;57.70;;;;;;4192972;28;20075;-63
2022/08/07 04:38:09;;;;;;;0.00;0.00;;;22.80;57.70;;;;;;4174939;28;20061;-63
2022/08/07 04:40:40;;;;;;;0.00;0.00;;;22.80;57.70;;;;;;4172463;28;20055;-64
2022/08/07 04:43:05;;;;;;;0.00;0.00;;;22.80;57.70;;;;;;4188326;28;20054;-63
2022/08/07 04:45:40;;;;;;;0.10;0.10;;;22.80;57.70;;;;;;4199903;28;20594;-64
2022/08/07 04:48:10;;;;;;;0.25;0.25;;;22.80;57.70;;;;;;4191064;28;20045;-63
2022/08/07 04:50:43;;;;;;;0.20;0.20;;;22.80;57.70;;;;;;4191352;28;20048;-63
2022/08/07 04:53:20;;;;;;;0.15;0.15;;;22.80;57.70;;;;;;4175052;28;20059;-63
2022/08/07 04:55:55;;;;;;;0.52;0.52;;;22.80;57.80;;;;;;4191175;28;20514;-63
2022/08/07 04:58:46;;;;;;;5.47;1.02;;;22.80;57.80;;;;;;4179718;28;20056;-63
2022/08/07 05:01:37;;;;;;;0.07;0.07;;;22.80;57.70;;;;;;4174888;28;20122;-62
2022/08/07 05:04:06;;;;;;;;;;;22.80;57.60;;;;;;4174792;28;20287;-62
2022/08/07 05:06:42;;;;;;;0.20;0.20;;;22.80;57.50;;;;;;4174496;28;19933;-63
2022/08/07 05:09:22;;;;;;;0.10;0.10;;;22.80;57.40;;;;;;4173341;28;20103;-63
2022/08/07 05:11:53;;;;;;;0.10;0.10;;;22.80;57.40;;;;;;4174314;28;20048;-63
2022/08/07 05:14:22;;;;;;;0.10;0.10;;;22.90;57.40;;;;;;4178755;28;20406;-63
2022/08/07 05:17:07;;;;;;;0.00;0.00;;;22.90;57.40;;;;;;4190911;28;20588;-63
2022/08/07 05:19:38;;;;;;;0.00;0.00;;;22.80;57.30;;;;;;4190694;28;20067;-62
2022/08/07 05:22:09;;;;;;;0.00;0.00;;;22.90;57.40;;;;;;4190768;28;20460;-62
2022/08/07 05:24:35;;;;;;;0.00;0.00;;;22.90;57.40;;;;;;4157844;28;20147;-62
2022/08/07 05:27:02;;;;;;;0.00;0.00;;;22.80;57.40;;;;;;4143682;28;20093;-63
2022/08/07 05:29:27;;;;;;;0.08;0.08;;;22.90;57.40;;;;;;4177774;28;20045;-63
2022/08/07 05:32:02;;;;;;;0.00;0.00;;;22.90;58.20;;;;;;4175349;28;20044;-64
2022/08/07 05:34:26;;;;;;;1.35;1.08;;;22.80;57.40;;;;;;4173609;28;20055;-63
2022/08/07 05:36:51;;;;;;;0.15;0.15;;;22.90;57.50;;;;;;4174251;28;20049;-63
2022/08/07 05:39:41;;;;;;;0.05;0.05;;;22.90;57.40;;;;;;4175208;28;20063;-68
2022/08/07 05:42:25;;;;;;;0.47;0.30;;;22.90;57.40;;;;;;4173899;28;20713;-64
2022/08/07 05:44:56;;;;;;;0.00;0.00;;;22.90;57.80;;;;;;4174415;28;20078;-64
2022/08/07 05:47:25;;;;;;;0.00;0.00;;;22.90;57.70;;;;;;4173585;28;20056;-64
2022/08/07 05:50:02;;;;;;;0.20;0.20;;;23.00;57.60;;;;;;4174052;28;20041;-63
2022/08/07 05:52:25;;;;;;;0.30;0.30;;;22.90;57.50;;;;;;4173815;28;20095;-64
2022/08/07 05:54:51;;;;;;;0.03;0.03;;;22.90;57.50;;;;;;4157647;28;20052;-64
2022/08/07 05:57:16;;;;;;;3.58;0.98;;;22.90;57.40;;;;;;4157159;28;20447;-65
2022/08/07 05:59:42;;;;;;;0.28;0.28;;;22.90;57.40;;;;;;4143629;28;20034;-64
2022/08/07 06:02:20;;;;;;;0.00;0.00;;;22.90;57.40;;;;;;4158444;28;20563;-63
2022/08/07 06:04:52;;;;;;;0.00;0.00;;;22.90;57.40;;;;;;4168723;28;20159;-64
2022/08/07 06:07:15;;;;;;;0.00;0.00;;;22.90;57.40;;;;;;4157466;28;20049;-64
2022/08/07 06:09:46;;;;;;;0.00;0.00;;;22.90;57.40;;;;;;4157321;28;20056;-64
2022/08/07 06:12:25;;;;;;;0.00;0.00;;;23.00;57.40;;;;;;4143517;28;20049;-63
2022/08/07 06:14:51;;;;;;;0.00;0.00;;;23.00;57.40;;;;;;4157239;28;20052;-63
2022/08/07 06:17:13;;;;;;;0.00;0.00;;;22.90;57.40;;;;;;4158838;28;20080;-63
2022/08/07 06:19:36;;;;;;;0.65;0.52;;;22.90;57.40;;;;;;4173539;28;20048;-63
2022/08/07 06:22:09;;;;;;;0.00;0.00;;;22.90;57.50;;;;;;4160597;28;20115;-64
2022/08/07 06:24:35;;;;;;;0.00;0.00;;;22.90;57.50;;;;;;4162609;28;20417;-64
2022/08/07 06:27:00;;;;;;;0.00;0.00;;;23.00;57.60;;;;;;4177098;28;20098;-63
2022/08/07 06:29:27;;;;;;;0.32;0.32;;;22.90;57.90;;;;;;4177123;28;20056;-66
2022/08/07 06:31:51;;;;;;;0.93;0.93;;;23.00;59.70;;;;;;4185046;28;20059;-66
2022/08/07 06:34:14;;;;;;;2.47;1.60;;;23.00;63.30;;;;;;4193699;28;20053;-66
2022/08/07 06:36:37;;;;;;;0.55;0.55;;;23.00;64.60;;;;;;4191688;28;20054;-66
2022/08/07 06:39:01;;;;;;;0.15;0.15;;;23.00;64.70;;;;;;4161807;28;20127;-66
2022/08/07 06:41:47;;;;;;;1.00;1.00;;;23.00;64.50;;;;;;4176302;28;20535;-67
2022/08/07 06:44:46;;;;;;;0.00;0.00;;;23.00;63.90;;;;;;4177585;28;20037;-66
2022/08/07 06:47:14;;;;;;;0.00;0.00;;;23.10;62.90;;;;;;4191859;28;20056;-66
2022/08/07 06:49:37;;;;;;;0.20;0.20;;;23.10;62.10;;;;;;4193113;28;20126;-66
2022/08/07 06:52:16;;;;;;;2.30;1.38;;;23.10;61.50;;;;;;4182539;28;20055;-67
2022/08/07 06:54:40;;;;;;;0.00;0.00;;;23.10;61.20;;;;;;4184444;28;20048;-66
2022/08/07 06:57:24;;;;;;;1.02;1.02;;;23.10;60.90;;;;;;4193128;28;20075;-66
2022/08/07 06:59:48;;;;;;;0.10;0.10;;;23.20;60.70;;;;;;4190326;28;20140;-66
2022/08/07 07:02:32;;;;;;;0.10;0.10;;;23.20;60.50;;;;;;4175133;28;20511;-66
2022/08/07 07:05:11;;;;;;;2.55;0.63;;;23.30;60.30;;;;;;4177660;28;20055;-66
2022/08/07 07:07:33;;;;;;;0.00;0.00;;;23.30;60.00;;;;;;4177537;28;20515;-66
2022/08/07 07:10:26;;;;;;;0.05;0.05;;;23.30;59.90;;;;;;4176128;28;20053;-66
2022/08/07 07:12:53;;;;;;;0.00;0.00;;;23.40;60.00;;;;;;4176281;28;20041;-67
2022/08/07 07:15:21;;;;;;;0.45;0.45;;;23.50;60.70;;;;;;4177811;28;20604;-66
2022/08/07 07:17:54;;;;;;;0.20;0.20;;;23.50;59.50;;;;;;4176568;28;20049;-66
2022/08/07 07:20:20;;;;;;;0.68;0.68;;;23.50;59.20;;;;;;4176292;28;20128;-66
2022/08/07 07:22:43;;;;;;;0.00;0.00;;;23.60;58.90;;;;;;4177428;28;20159;-66
2022/08/07 07:25:25;;;;;;;0.00;0.00;;;23.60;58.70;;;;;;4173863;28;20195;-66
2022/08/07 07:28:14;;;;;;;0.47;0.40;;;23.60;58.50;;;;;;4177193;28;20060;-67
2022/08/07 07:30:56;;;;;;;0.00;0.00;;;23.70;58.20;;;;;;4168368;28;20057;-66
2022/08/07 07:33:21;;;;;;;0.05;0.05;;;23.60;57.80;;;;;;4167443;28;20075;-67
2022/08/07 07:35:47;;;;;;;0.00;0.00;;;23.70;57.70;;;;;;4177300;28;20060;-66
2022/08/07 07:38:18;;;;;;;0.45;0.40;;;23.70;57.60;;;;;;4175888;28;20047;-66
2022/08/07 07:40:41;;;;;;;0.00;0.00;;;23.80;57.50;;;;;;4176871;28;20465;-66
2022/08/07 07:43:05;;;;;;;0.00;0.00;;;23.80;57.30;;;;;;4180341;28;20049;-66
2022/08/07 07:45:33;;;;;;;0.35;0.35;;;23.80;57.90;;;;;;4176548;28;20067;-67
2022/08/07 07:48:19;;;;;;;2.38;1.15;;;23.80;56.90;;;;;;4177282;28;20049;-67
2022/08/07 07:50:48;;;;;;;0.00;0.00;;;23.80;56.70;;;;;;4176784;28;20052;-66
2022/08/07 07:53:11;;;;;;;0.10;0.10;;;23.80;56.70;;;;;;4176935;28;20049;-66
2022/08/07 07:55:35;;;;;;;0.00;0.00;;;23.90;56.60;;;;;;4176531;28;20507;-66
2022/08/07 07:57:59;;;;;;;0.00;0.00;;;23.90;56.60;;;;;;4191293;28;20155;-66
2022/08/07 08:00:21;;;;;;;0.00;0.00;;;23.90;56.60;;;;;;4180356;28;20045;-66
2022/08/07 08:02:53;;;;;;;0.00;0.00;;;23.90;56.40;;;;;;4176858;28;20495;-66
2022/08/07 08:05:23;;;;;;;1.65;1.55;;;23.90;56.40;;;;;;4176470;28;20060;-66
2022/08/07 08:07:48;;;;;;;0.00;0.00;;;23.90;56.30;;;;;;4177108;28;20558;-65
2022/08/07 08:10:15;;;;;;;0.00;0.00;;;24.00;56.20;;;;;;4175124;28;20412;-64
2022/08/07 08:12:57;;;;;;;1.40;1.30;;;23.90;55.90;;;;;;4176844;28;20076;-63
2022/08/07 08:15:21;;;;;;;0.00;0.00;;;24.00;55.70;;;;;;4185670;28;20115;-63
2022/08/07 08:17:44;;;;;;;0.03;0.03;;;24.00;55.50;;;;;;4175864;28;20122;-62
2022/08/07 08:20:19;;;;;;;0.00;0.00;;;24.00;55.40;;;;;;4176458;28;20047;-63
2022/08/07 08:28:15;;;;;;;0.00;0.00;;;24.00;55.30;;;;;;4192862;28;20135;-65
2022/08/07 08:30:46;;;;;;;0.47;0.38;;;24.10;55.10;;;;;;4192336;28;20094;-67
2022/08/07 08:33:17;;;;;;;0.00;0.00;;;24.10;54.90;;;;;;4193165;28;20052;-67
2022/08/07 08:35:40;;;;;;;0.20;0.20;;;24.10;54.80;;;;;;4187282;28;20064;-66
2022/08/07 08:38:05;;;;;;;0.00;0.00;;;24.10;54.90;;;;;;4174785;28;20083;-66
2022/08/07 08:40:32;;;;;;;0.00;0.00;;;24.10;54.90;;;;;;4175535;28;20091;-66
2022/08/07 08:43:00;;;;;;;0.00;0.00;;;24.10;54.70;;;;;;4176056;28;20049;-66
2022/08/07 08:45:28;;;;;;;0.00;0.00;;;24.10;54.60;;;;;;4174900;28;20443;-66
2022/08/07 08:48:09;;;;;;;0.00;0.00;;;24.10;54.50;;;;;;4174929;28;20060;-65
2022/08/07 08:50:37;;;;;;;0.00;0.00;;;24.10;54.30;;;;;;4159475;28;20112;-66
2022/08/07 08:53:06;;;;;;;0.00;0.00;;;24.10;54.10;;;;;;4176380;28;20071;-66
2022/08/07 08:55:36;;;;;;;0.05;0.05;;;24.10;53.90;;;;;;4159194;28;20443;-65
2022/08/07 08:58:26;;;;;;;0.00;0.00;;;24.10;53.90;;;;;;4159846;28;20368;-65
2022/08/07 09:00:52;;;;;;;0.00;0.00;;;24.10;53.60;;;;;;4159467;28;20495;-66
2022/08/07 09:03:23;;;;;;;0.00;0.00;;;24.10;53.70;;;;;;4159468;28;20136;-65
2022/08/07 09:06:10;;;;;;;0.03;0.03;;;24.10;53.40;;;;;;4165039;28;20068;-66
2022/08/07 09:08:41;;;;;;;0.00;0.00;;;24.10;53.40;;;;;;4175380;28;20404;-66
2022/08/07 09:11:15;;;;;;;0.10;0.10;;;24.10;53.30;;;;;;4175698;28;20439;-66
2022/08/07 09:14:04;;;;;;;0.00;0.00;;;24.10;53.20;;;;;;4175654;28;20045;-66
2022/08/07 09:16:36;;;;;;;0.00;0.00;;;24.10;53.20;;;;;;4174995;28;20080;-67
2022/08/07 09:19:26;;;;;;;0.00;0.00;;;24.10;53.30;;;;;;4174782;28;20067;-66
2022/08/07 09:22:18;;;;;;;0.00;0.00;;;24.10;53.20;;;;;;4163095;28;20057;-67
2022/08/07 09:24:54;;;;;;;0.00;0.00;;;24.10;53.50;;;;;;4167776;28;20045;-66
2022/08/07 09:27:30;;;;;;;0.00;0.00;;;24.10;54.40;;;;;;4161705;28;20060;-66
2022/08/07 09:29:58;;;;;;;0.10;0.10;;;24.10;53.40;;;;;;4142705;28;20058;-66
2022/08/07 09:32:54;;;;;;;0.00;0.00;;;24.00;53.10;;;;;;4163681;28;20049;-66
2022/08/07 09:35:26;;;;;;;0.00;0.00;;;24.00;53.00;;;;;;4173798;28;20052;-67
2022/08/07 09:38:14;;;;;;;0.00;0.00;;;24.00;52.80;;;;;;4168379;28;20497;-67
2022/08/07 09:40:47;;;;;;;0.05;0.05;;;24.00;53.70;;;;;;4181663;28;20157;-67
2022/08/07 09:43:37;;;;;;;0.15;0.15;;;24.10;53.10;;;;;;4192096;28;20059;-67
2022/08/07 09:46:14;;;;;;;0.00;0.00;;;24.10;53.40;;;;;;4191102;28;20189;-67
2022/08/07 09:49:05;;;;;;;0.25;0.10;;;24.10;53.00;;;;;;4185510;28;20053;-67
2022/08/07 09:52:04;;;;;;;0.00;0.00;;;24.10;52.60;;;;;;4160683;28;20143;-67
2022/08/07 09:54:39;;;;;;;0.00;0.00;;;24.10;52.30;;;;;;4169668;28;20052;-66
2022/08/07 09:57:30;;;;;;;0.00;0.00;;;24.20;52.40;;;;;;4173235;28;20055;-67
2022/08/07 10:00:15;;;;;;;0.30;0.30;;;24.20;52.70;;;;;;4164246;28;20049;-67
2022/08/07 10:03:07;;;;;;;0.25;0.25;;;24.20;52.80;;;;;;4174816;28;20060;-67
2022/08/07 10:06:06;;;;;;;0.00;0.00;;;24.20;52.50;;;;;;4187541;28;20076;-67
2022/08/07 10:08:47;;;;;;;0.75;0.70;;;24.30;52.60;;;;;;4175129;28;20053;-67
2022/08/07 10:11:22;;;;;;;0.00;0.00;;;24.30;52.10;;;;;;4175572;28;20079;-67
2022/08/07 10:14:15;;;;;;;0.00;0.00;;;24.30;52.50;;;;;;4177527;28;20049;-67
2022/08/07 10:17:05;;;;;;;0.57;0.55;;;24.40;52.30;;;;;;4174868;28;20074;-67
2022/08/07 10:20:00;;;;;;;0.00;0.00;;;24.40;51.80;;;;;;4178927;28;20136;-67
2022/08/07 10:22:44;;;;;;;0.15;0.15;;;24.40;51.80;;;;;;4191941;28;20036;-67
2022/08/07 10:25:28;;;;;;;8.07;1.85;;;24.50;51.80;;;;;;4192034;28;20039;-67
2022/08/07 10:28:26;;;;;;;1.85;0.90;;;24.50;51.50;;;;;;4175831;28;20147;-67
2022/08/07 10:31:00;;;;;;;0.30;0.30;;;24.50;51.30;;;;;;4147302;28;20059;-67
2022/08/07 10:33:47;;;;;;;0.00;0.00;;;24.50;51.10;;;;;;4174900;28;20053;-67
2022/08/07 10:36:38;;;;;;;0.10;0.10;;;24.60;51.30;;;;;;4174699;28;20121;-68
2022/08/07 10:39:10;;;;;;;0.00;0.00;;;24.60;51.40;;;;;;4173375;28;20049;-68
2022/08/07 10:41:36;;;;;;;0.00;0.00;;;24.60;51.60;;;;;;4174582;28;20049;-69
2022/08/07 10:44:16;;;;;;;0.05;0.05;;;24.60;51.70;;;;;;4158379;28;20080;-70
2022/08/07 10:46:42;;;;;;;;;;;24.60;51.90;;;;;;4160138;28;20045;-68
2022/08/07 10:49:14;;;;;;;0.00;0.00;;;24.60;52.00;;;;;;4188070;28;19928;-68
2022/08/07 10:51:40;;;;;;;0.00;0.00;;;24.60;51.90;;;;;;4188974;28;20052;-68
2022/08/07 10:54:26;;;;;;;0.80;0.70;;;24.60;51.80;;;;;;4183259;28;20130;-68
2022/08/07 10:57:02;;;;;;;0.08;0.08;;;24.60;51.70;;;;;;4174843;28;20068;-68
2022/08/07 10:59:35;;;;;;;0.00;0.00;;;24.60;51.70;;;;;;4174456;28;20048;-68
2022/08/07 11:02:02;;;;;;;0.00;0.00;;;24.60;51.80;;;;;;4190943;28;20056;-68
2022/08/07 11:04:40;;;;;;;0.00;0.00;;;24.70;51.80;;;;;;4189969;28;20045;-67
2022/08/07 11:07:09;;;;;;;0.13;0.13;;;24.70;51.80;;;;;;4191452;28;20056;-68
2022/08/07 11:09:43;;;;;;;0.25;0.25;;;24.70;51.70;;;;;;4190978;28;20504;-68
2022/08/07 11:12:33;;;;;;;0.00;0.00;;;24.70;51.70;;;;;;4177818;28;20075;-68
2022/08/07 11:15:02;;;;;;;1.45;0.90;;;24.80;52.50;;;;;;4177645;28;20041;-68
2022/08/07 11:17:29;;;;;;;0.00;0.00;;;24.80;51.70;;;;;;4177748;28;20118;-68
2022/08/07 11:20:11;;;;;;;0.00;0.00;;;24.80;51.60;;;;;;4182745;28;20068;-68
2022/08/07 11:22:37;;;;;;;0.00;0.00;;;24.80;51.60;;;;;;4194080;28;20033;-68
2022/08/07 11:25:13;;;;;;;0.00;0.00;;;24.80;51.50;;;;;;4192860;28;20048;-68
2022/08/07 11:27:45;;;;;;;0.00;0.00;;;24.90;51.50;;;;;;4194001;28;20052;-68
2022/08/07 11:30:28;;;;;;;0.10;0.10;;;24.90;51.40;;;;;;4193859;28;20048;-68
2022/08/07 11:33:06;;;;;;;0.00;0.00;;;24.90;51.30;;;;;;4193966;28;20122;-68
2022/08/07 11:35:43;;;;;;;0.00;0.00;;;24.90;51.40;;;;;;4159600;28;20424;-68
2022/08/07 11:38:27;;;;;;;0.00;0.00;;;24.90;51.30;;;;;;4159695;28;20178;-69
2022/08/07 11:40:57;;;;;;;0.65;0.65;;;25.00;52.10;;;;;;4189299;28;20045;-69
2022/08/07 11:43:23;;;;;;;0.55;0.55;;;25.00;51.20;;;;;;4186513;28;20545;-69
2022/08/07 11:46:08;;;;;;;;;;;25.00;51.20;;;;;;4192294;28;20037;-69
2022/08/07 11:49:09;;;;;;;0.00;0.00;;;25.00;51.20;;;;;;4193963;28;19960;-68
2022/08/07 11:52:01;;;;;;;0.10;0.10;;;24.90;51.90;;;;;;4193249;28;20415;-68
2022/08/07 11:54:38;;;;;;;0.00;0.00;;;24.90;51.20;;;;;;4191648;28;20577;-68
2022/08/07 11:57:12;;;;;;;0.00;0.00;;;24.90;51.20;;;;;;4193544;28;20491;-68
2022/08/07 12:00:00;;;;;;;0.00;0.00;;;24.90;51.20;;;;;;4192189;28;20099;-68
2022/08/07 12:02:51;;;;;;;0.15;0.15;;;24.90;51.20;;;;;;4190987;28;20059;-68
2022/08/07 12:05:21;;;;;;;0.00;0.00;;;25.00;51.10;;;;;;4193582;28;20484;-68
2022/08/07 12:07:54;;;;;;;0.00;0.00;;;25.00;51.10;;;;;;4193435;28;20139;-68
2022/08/07 12:10:28;;;;;;;0.00;0.00;;;25.00;50.80;;;;;;4184620;28;20102;-69
2022/08/07 12:12:56;;;;;;;0.00;0.00;;;25.00;51.50;;;;;;4176679;28;20075;-68
2022/08/07 12:15:23;;;;;;;0.00;0.00;;;25.00;50.80;;;;;;4176613;28;20037;-68
2022/08/07 12:18:05;;;;;;;0.00;0.00;;;25.00;50.80;;;;;;4191487;28;20506;-68
2022/08/07 12:20:35;;;;;;;0.00;0.00;;;25.00;50.80;;;;;;4192487;28;20430;-68
2022/08/07 12:23:22;;;;;;;0.00;0.00;;;25.10;50.80;;;;;;4193211;28;20098;-68
2022/08/07 12:26:03;;;;;;;0.00;0.00;;;25.10;50.80;;;;;;4192978;28;20372;-68
2022/08/07 12:28:51;;;;;;;0.00;0.00;;;25.10;50.80;;;;;;4191947;28;20036;-69
2022/08/07 12:31:22;;;;;;;0.00;0.00;;;25.10;50.70;;;;;;4158512;28;20041;-69
2022/08/07 12:33:46;;;;;;;0.00;0.00;;;25.20;50.60;;;;;;4159532;28;20068;-68
2022/08/07 12:36:19;;;;;;;0.15;0.15;;;25.20;50.60;;;;;;4159702;28;20400;-68
2022/08/07 12:38:44;;;;;;;0.00;0.00;;;25.20;50.60;;;;;;4159897;28;20518;-68
2022/08/07 12:41:10;;;;;;;0.00;0.00;;;25.30;50.60;;;;;;4172411;28;20441;-68
2022/08/07 12:43:35;;;;;;;0.00;0.00;;;25.30;50.60;;;;;;4163256;28;20052;-68
2022/08/07 12:46:28;;;;;;;0.00;0.00;;;25.30;50.60;;;;;;4174726;28;20041;-68
2022/08/07 12:49:01;;;;;;;0.00;0.00;;;25.30;50.40;;;;;;4174460;28;20045;-69
2022/08/07 12:51:39;;;;;;;0.00;0.00;;;25.30;50.50;;;;;;4192217;28;20249;-69
2022/08/07 12:54:19;;;;;;;0.00;0.00;;;25.30;50.50;;;;;;4192243;28;20051;-68
2022/08/07 12:56:49;;;;;;;0.47;0.47;;;25.30;50.40;;;;;;4192399;28;20058;-68
2022/08/07 12:59:20;;;;;;;0.00;0.00;;;25.30;50.40;;;;;;4192322;28;20052;-69
2022/08/07 13:02:02;;;;;;;0.00;0.00;;;25.30;50.50;;;;;;4192458;28;20078;-68
2022/08/07 13:04:48;;;;;;;0.00;0.00;;;25.30;50.50;;;;;;4192515;28;20395;-68
2022/08/07 13:07:57;;;;;;;0.00;0.00;;;25.40;50.60;;;;;;4192262;28;20149;-69
2022/08/07 13:10:49;;;;;;;0.00;0.00;;;25.40;50.50;;;;;;4192536;28;20076;-68
2022/08/07 13:13:25;;;;;;;0.00;0.00;;;25.40;50.50;;;;;;4192516;28;20040;-68
2022/08/07 13:16:15;;;;;;;0.00;0.00;;;25.40;50.60;;;;;;4191710;28;20056;-68
2022/08/07 13:18:48;;;;;;;0.00;0.00;;;25.40;50.60;;;;;;4159138;28;20046;-68